sensor_id;sensor_type;location;lat;lon;timestamp;pressure;altitude;pressure_sealevel;temperature
33877;BMP180;20166;51.738;7.158;2024-03-07T00:01:07;101982.00;;;5.80
33877;BMP180;20166;51.738;7.158;2024-03-07T00:03:55;101979.00;;;5.80
33877;BMP180;20166;51.738;7.158;2024-03-07T00:06:41;101983.00;;;5.70
33877;BMP180;20166;51.738;7.158;2024-03-07T00:09:28;101978.00;;;5.70
33877;BMP180;20166;51.738;7.158;2024-03-07T00:12:14;101985.00;;;5.60
33877;BMP180;20166;51.738;7.158;2024-03-07T00:15:01;101983.00;;;5.50
33877;BMP180;20166;51.738;7.158;2024-03-07T00:17:48;101977.00;;;5.40
33877;BMP180;20166;51.738;7.158;2024-03-07T00:20:36;101973.00;;;5.30
33877;BMP180;20166;51.738;7.158;2024-03-07T00:23:23;101986.00;;;5.30
33877;BMP180;20166;51.738;7.158;2024-03-07T00:26:09;101982.00;;;5.10
33877;BMP180;20166;51.738;7.158;2024-03-07T00:28:55;101985.00;;;5.10
33877;BMP180;20166;51.738;7.158;2024-03-07T00:31:42;101987.00;;;5.10
33877;BMP180;20166;51.738;7.158;2024-03-07T00:34:29;101984.00;;;5.10
33877;BMP180;20166;51.738;7.158;2024-03-07T00:37:17;101984.00;;;4.90
33877;BMP180;20166;51.738;7.158;2024-03-07T00:40:04;101985.00;;;4.90
33877;BMP180;20166;51.738;7.158;2024-03-07T00:42:51;101993.00;;;4.90
33877;BMP180;20166;51.738;7.158;2024-03-07T00:45:38;101986.00;;;4.90
33877;BMP180;20166;51.738;7.158;2024-03-07T00:48:24;101995.00;;;4.90
33877;BMP180;20166;51.738;7.158;2024-03-07T00:51:11;101981.00;;;4.80
33877;BMP180;20166;51.738;7.158;2024-03-07T00:53:59;101981.00;;;4.80
33877;BMP180;20166;51.738;7.158;2024-03-07T00:56:46;101979.00;;;4.80
33877;BMP180;20166;51.738;7.158;2024-03-07T00:59:34;101981.00;;;4.70
33877;BMP180;20166;51.738;7.158;2024-03-07T01:02:20;101996.00;;;4.70
33877;BMP180;20166;51.738;7.158;2024-03-07T01:05:07;101979.00;;;4.70
33877;BMP180;20166;51.738;7.158;2024-03-07T01:07:54;101980.00;;;4.60
33877;BMP180;20166;51.738;7.158;2024-03-07T01:10:42;101990.00;;;4.70
33877;BMP180;20166;51.738;7.158;2024-03-07T01:13:28;101976.00;;;4.60
33877;BMP180;20166;51.738;7.158;2024-03-07T01:16:15;101977.00;;;4.60
33877;BMP180;20166;51.738;7.158;2024-03-07T01:19:02;101988.00;;;4.60
33877;BMP180;20166;51.738;7.158;2024-03-07T01:21:51;101984.00;;;4.50
33877;BMP180;20166;51.738;7.158;2024-03-07T01:24:37;101981.00;;;4.50
33877;BMP180;20166;51.738;7.158;2024-03-07T01:27:26;101982.00;;;4.50
33877;BMP180;20166;51.738;7.158;2024-03-07T01:30:12;101979.00;;;4.50
33877;BMP180;20166;51.738;7.158;2024-03-07T01:32:59;101975.00;;;4.40
33877;BMP180;20166;51.738;7.158;2024-03-07T01:35:46;101974.00;;;4.40
33877;BMP180;20166;51.738;7.158;2024-03-07T01:38:33;101970.00;;;4.30
33877;BMP180;20166;51.738;7.158;2024-03-07T01:41:19;101965.00;;;4.30
33877;BMP180;20166;51.738;7.158;2024-03-07T01:44:07;101962.00;;;4.20
33877;BMP180;20166;51.738;7.158;2024-03-07T01:46:53;101961.00;;;4.30
33877;BMP180;20166;51.738;7.158;2024-03-07T01:49:40;101962.00;;;4.30
33877;BMP180;20166;51.738;7.158;2024-03-07T01:52:26;101959.00;;;4.30
33877;BMP180;20166;51.738;7.158;2024-03-07T01:55:13;101964.00;;;4.20
33877;BMP180;20166;51.738;7.158;2024-03-07T01:58:02;101960.00;;;4.20
33877;BMP180;20166;51.738;7.158;2024-03-07T02:00:50;101965.00;;;4.20
33877;BMP180;20166;51.738;7.158;2024-03-07T02:03:37;101960.00;;;4.10
33877;BMP180;20166;51.738;7.158;2024-03-07T02:06:24;101960.00;;;4.20
33877;BMP180;20166;51.738;7.158;2024-03-07T02:09:11;101954.00;;;4.20
33877;BMP180;20166;51.738;7.158;2024-03-07T02:11:59;101947.00;;;4.20
33877;BMP180;20166;51.738;7.158;2024-03-07T02:14:46;101950.00;;;4.20
33877;BMP180;20166;51.738;7.158;2024-03-07T02:17:35;101943.00;;;4.10
33877;BMP180;20166;51.738;7.158;2024-03-07T02:20:21;101951.00;;;4.10
33877;BMP180;20166;51.738;7.158;2024-03-07T02:23:10;101962.00;;;4.00
33877;BMP180;20166;51.738;7.158;2024-03-07T02:25:56;101945.00;;;4.00
33877;BMP180;20166;51.738;7.158;2024-03-07T02:28:43;101948.00;;;4.10
33877;BMP180;20166;51.738;7.158;2024-03-07T02:31:30;101939.00;;;4.10
33877;BMP180;20166;51.738;7.158;2024-03-07T02:34:21;101949.00;;;4.10
33877;BMP180;20166;51.738;7.158;2024-03-07T02:37:08;101935.00;;;4.10
33877;BMP180;20166;51.738;7.158;2024-03-07T02:39:56;101946.00;;;4.00
33877;BMP180;20166;51.738;7.158;2024-03-07T02:42:43;101942.00;;;4.00
33877;BMP180;20166;51.738;7.158;2024-03-07T02:45:30;101943.00;;;4.00
33877;BMP180;20166;51.738;7.158;2024-03-07T02:48:16;101940.00;;;4.00
33877;BMP180;20166;51.738;7.158;2024-03-07T02:51:04;101935.00;;;3.90
33877;BMP180;20166;51.738;7.158;2024-03-07T02:53:51;101944.00;;;4.00
33877;BMP180;20166;51.738;7.158;2024-03-07T02:56:39;101938.00;;;4.00
33877;BMP180;20166;51.738;7.158;2024-03-07T02:59:25;101931.00;;;3.90
33877;BMP180;20166;51.738;7.158;2024-03-07T03:02:11;101938.00;;;4.00
33877;BMP180;20166;51.738;7.158;2024-03-07T03:04:58;101922.00;;;3.90
33877;BMP180;20166;51.738;7.158;2024-03-07T03:07:44;101925.00;;;3.80
33877;BMP180;20166;51.738;7.158;2024-03-07T03:10:38;101929.00;;;3.80
33877;BMP180;20166;51.738;7.158;2024-03-07T03:13:26;101925.00;;;3.80
33877;BMP180;20166;51.738;7.158;2024-03-07T03:16:14;101922.00;;;3.80
33877;BMP180;20166;51.738;7.158;2024-03-07T03:19:01;101924.00;;;3.80
33877;BMP180;20166;51.738;7.158;2024-03-07T03:21:47;101925.00;;;3.80
33877;BMP180;20166;51.738;7.158;2024-03-07T03:24:33;101921.00;;;3.80
33877;BMP180;20166;51.738;7.158;2024-03-07T03:27:20;101914.00;;;3.80
33877;BMP180;20166;51.738;7.158;2024-03-07T03:30:09;101913.00;;;3.70
33877;BMP180;20166;51.738;7.158;2024-03-07T03:32:59;101913.00;;;3.80
33877;BMP180;20166;51.738;7.158;2024-03-07T03:35:45;101907.00;;;3.70
33877;BMP180;20166;51.738;7.158;2024-03-07T03:38:32;101911.00;;;3.80
33877;BMP180;20166;51.738;7.158;2024-03-07T03:41:18;101910.00;;;4.00
33877;BMP180;20166;51.738;7.158;2024-03-07T03:44:05;101910.00;;;4.00
33877;BMP180;20166;51.738;7.158;2024-03-07T03:46:53;101916.00;;;4.00
33877;BMP180;20166;51.738;7.158;2024-03-07T03:49:40;101912.00;;;4.10
33877;BMP180;20166;51.738;7.158;2024-03-07T03:52:27;101908.00;;;4.10
33877;BMP180;20166;51.738;7.158;2024-03-07T03:55:14;101916.00;;;4.20
33877;BMP180;20166;51.738;7.158;2024-03-07T03:58:00;101907.00;;;4.20
33877;BMP180;20166;51.738;7.158;2024-03-07T04:00:47;101906.00;;;4.30
33877;BMP180;20166;51.738;7.158;2024-03-07T04:03:35;101910.00;;;4.20
33877;BMP180;20166;51.738;7.158;2024-03-07T04:06:21;101906.00;;;4.20
33877;BMP180;20166;51.738;7.158;2024-03-07T04:09:09;101907.00;;;4.10
33877;BMP180;20166;51.738;7.158;2024-03-07T04:11:55;101908.00;;;4.10
33877;BMP180;20166;51.738;7.158;2024-03-07T04:14:42;101905.00;;;4.10
33877;BMP180;20166;51.738;7.158;2024-03-07T04:17:29;101907.00;;;4.00
33877;BMP180;20166;51.738;7.158;2024-03-07T04:20:18;101899.00;;;4.00
33877;BMP180;20166;51.738;7.158;2024-03-07T04:23:05;101899.00;;;3.90
33877;BMP180;20166;51.738;7.158;2024-03-07T04:25:56;101892.00;;;3.90
33877;BMP180;20166;51.738;7.158;2024-03-07T04:28:42;101892.00;;;3.90
33877;BMP180;20166;51.738;7.158;2024-03-07T04:31:29;101891.00;;;4.00
33877;BMP180;20166;51.738;7.158;2024-03-07T04:34:15;101897.00;;;3.90
33877;BMP180;20166;51.738;7.158;2024-03-07T04:37:05;101903.00;;;3.90
33877;BMP180;20166;51.738;7.158;2024-03-07T04:39:52;101896.00;;;3.90
33877;BMP180;20166;51.738;7.158;2024-03-07T04:42:38;101896.00;;;3.90
33877;BMP180;20166;51.738;7.158;2024-03-07T04:45:25;101901.00;;;4.00
33877;BMP180;20166;51.738;7.158;2024-03-07T04:48:11;101903.00;;;3.90
33877;BMP180;20166;51.738;7.158;2024-03-07T04:50:58;101910.00;;;3.80
33877;BMP180;20166;51.738;7.158;2024-03-07T04:53:46;101896.00;;;3.80
33877;BMP180;20166;51.738;7.158;2024-03-07T04:56:33;101899.00;;;3.70
33877;BMP180;20166;51.738;7.158;2024-03-07T04:59:21;101900.00;;;3.70
33877;BMP180;20166;51.738;7.158;2024-03-07T05:02:07;101898.00;;;3.60
33877;BMP180;20166;51.738;7.158;2024-03-07T05:04:54;101900.00;;;3.60
33877;BMP180;20166;51.738;7.158;2024-03-07T05:07:40;101910.00;;;3.50
33877;BMP180;20166;51.738;7.158;2024-03-07T05:10:28;101908.00;;;3.60
33877;BMP180;20166;51.738;7.158;2024-03-07T05:13:14;101905.00;;;3.60
33877;BMP180;20166;51.738;7.158;2024-03-07T05:16:01;101907.00;;;3.60
33877;BMP180;20166;51.738;7.158;2024-03-07T05:18:47;101897.00;;;3.60
33877;BMP180;20166;51.738;7.158;2024-03-07T05:21:35;101897.00;;;3.60
33877;BMP180;20166;51.738;7.158;2024-03-07T05:24:25;101890.00;;;3.50
33877;BMP180;20166;51.738;7.158;2024-03-07T05:27:14;101889.00;;;3.50
33877;BMP180;20166;51.738;7.158;2024-03-07T05:30:00;101900.00;;;3.50
33877;BMP180;20166;51.738;7.158;2024-03-07T05:32:46;101895.00;;;3.50
33877;BMP180;20166;51.738;7.158;2024-03-07T05:35:34;101902.00;;;3.50
33877;BMP180;20166;51.738;7.158;2024-03-07T05:38:20;101898.00;;;3.50
33877;BMP180;20166;51.738;7.158;2024-03-07T05:41:07;101907.00;;;3.50
33877;BMP180;20166;51.738;7.158;2024-03-07T05:43:57;101898.00;;;3.50
33877;BMP180;20166;51.738;7.158;2024-03-07T05:46:43;101903.00;;;3.40
33877;BMP180;20166;51.738;7.158;2024-03-07T05:49:34;101907.00;;;3.40
33877;BMP180;20166;51.738;7.158;2024-03-07T05:52:22;101906.00;;;3.40
33877;BMP180;20166;51.738;7.158;2024-03-07T05:55:08;101906.00;;;3.50
33877;BMP180;20166;51.738;7.158;2024-03-07T05:57:56;101905.00;;;3.40
33877;BMP180;20166;51.738;7.158;2024-03-07T06:00:44;101908.00;;;3.40
33877;BMP180;20166;51.738;7.158;2024-03-07T06:03:35;101912.00;;;3.40
33877;BMP180;20166;51.738;7.158;2024-03-07T06:06:21;101905.00;;;3.40
33877;BMP180;20166;51.738;7.158;2024-03-07T06:09:09;101901.00;;;3.40
33877;BMP180;20166;51.738;7.158;2024-03-07T06:11:56;101908.00;;;3.30
33877;BMP180;20166;51.738;7.158;2024-03-07T06:14:45;101905.00;;;3.30
33877;BMP180;20166;51.738;7.158;2024-03-07T06:17:34;101904.00;;;3.20
33877;BMP180;20166;51.738;7.158;2024-03-07T06:20:20;101906.00;;;3.30
33877;BMP180;20166;51.738;7.158;2024-03-07T06:23:10;101910.00;;;3.40
33877;BMP180;20166;51.738;7.158;2024-03-07T06:25:58;101913.00;;;3.30
33877;BMP180;20166;51.738;7.158;2024-03-07T06:28:45;101917.00;;;3.30
33877;BMP180;20166;51.738;7.158;2024-03-07T06:31:32;101927.00;;;3.30
33877;BMP180;20166;51.738;7.158;2024-03-07T06:34:21;101924.00;;;3.40
33877;BMP180;20166;51.738;7.158;2024-03-07T06:37:08;101920.00;;;3.30
33877;BMP180;20166;51.738;7.158;2024-03-07T06:39:54;101932.00;;;3.40
33877;BMP180;20166;51.738;7.158;2024-03-07T06:42:41;101924.00;;;3.40
33877;BMP180;20166;51.738;7.158;2024-03-07T06:45:27;101934.00;;;3.40
33877;BMP180;20166;51.738;7.158;2024-03-07T06:48:13;101934.00;;;3.40
33877;BMP180;20166;51.738;7.158;2024-03-07T06:51:01;101928.00;;;3.40
33877;BMP180;20166;51.738;7.158;2024-03-07T06:53:48;101933.00;;;3.40
33877;BMP180;20166;51.738;7.158;2024-03-07T06:56:35;101923.00;;;3.40
33877;BMP180;20166;51.738;7.158;2024-03-07T06:59:22;101925.00;;;3.50
33877;BMP180;20166;51.738;7.158;2024-03-07T07:02:08;101930.00;;;3.50
33877;BMP180;20166;51.738;7.158;2024-03-07T07:04:54;101926.00;;;3.60
33877;BMP180;20166;51.738;7.158;2024-03-07T07:07:42;101934.00;;;3.60
33877;BMP180;20166;51.738;7.158;2024-03-07T07:10:29;101926.00;;;3.70
33877;BMP180;20166;51.738;7.158;2024-03-07T07:13:15;101926.00;;;3.70
33877;BMP180;20166;51.738;7.158;2024-03-07T07:16:02;101930.00;;;3.70
33877;BMP180;20166;51.738;7.158;2024-03-07T07:18:48;101934.00;;;3.70
33877;BMP180;20166;51.738;7.158;2024-03-07T07:21:35;101930.00;;;3.80
33877;BMP180;20166;51.738;7.158;2024-03-07T07:24:23;101931.00;;;3.80
33877;BMP180;20166;51.738;7.158;2024-03-07T07:27:10;101939.00;;;3.80
33877;BMP180;20166;51.738;7.158;2024-03-07T07:29:56;101932.00;;;3.90
33877;BMP180;20166;51.738;7.158;2024-03-07T07:32:45;101941.00;;;4.00
33877;BMP180;20166;51.738;7.158;2024-03-07T07:35:32;101935.00;;;3.90
33877;BMP180;20166;51.738;7.158;2024-03-07T07:38:20;101929.00;;;3.90
33877;BMP180;20166;51.738;7.158;2024-03-07T07:41:08;101933.00;;;4.00
33877;BMP180;20166;51.738;7.158;2024-03-07T07:43:55;101922.00;;;4.10
33877;BMP180;20166;51.738;7.158;2024-03-07T07:46:42;101917.00;;;4.20
33877;BMP180;20166;51.738;7.158;2024-03-07T07:49:29;101902.00;;;4.20
33877;BMP180;20166;51.738;7.158;2024-03-07T07:52:15;101897.00;;;4.30
33877;BMP180;20166;51.738;7.158;2024-03-07T07:55:01;101899.00;;;4.30
33877;BMP180;20166;51.738;7.158;2024-03-07T07:57:51;101903.00;;;4.50
33877;BMP180;20166;51.738;7.158;2024-03-07T08:00:38;101893.00;;;4.60
33877;BMP180;20166;51.738;7.158;2024-03-07T08:03:28;101887.00;;;4.60
33877;BMP180;20166;51.738;7.158;2024-03-07T08:06:15;101884.00;;;4.70
33877;BMP180;20166;51.738;7.158;2024-03-07T08:09:02;101879.00;;;4.80
33877;BMP180;20166;51.738;7.158;2024-03-07T08:11:52;101879.00;;;4.80
33877;BMP180;20166;51.738;7.158;2024-03-07T08:14:40;101889.00;;;4.80
33877;BMP180;20166;51.738;7.158;2024-03-07T08:17:26;101889.00;;;4.70
33877;BMP180;20166;51.738;7.158;2024-03-07T08:20:15;101889.00;;;4.70
33877;BMP180;20166;51.738;7.158;2024-03-07T08:23:03;101898.00;;;4.70
33877;BMP180;20166;51.738;7.158;2024-03-07T08:25:50;101902.00;;;4.60
33877;BMP180;20166;51.738;7.158;2024-03-07T08:28:37;101917.00;;;4.60
33877;BMP180;20166;51.738;7.158;2024-03-07T08:31:24;101911.00;;;4.60
33877;BMP180;20166;51.738;7.158;2024-03-07T08:34:11;101918.00;;;4.70
33877;BMP180;20166;51.738;7.158;2024-03-07T08:36:58;101919.00;;;4.80
33877;BMP180;20166;51.738;7.158;2024-03-07T08:39:44;101911.00;;;4.70
33877;BMP180;20166;51.738;7.158;2024-03-07T08:42:31;101911.00;;;4.80
33877;BMP180;20166;51.738;7.158;2024-03-07T08:45:19;101911.00;;;4.90
33877;BMP180;20166;51.738;7.158;2024-03-07T08:48:09;101903.00;;;5.00
33877;BMP180;20166;51.738;7.158;2024-03-07T08:50:56;101907.00;;;5.00
33877;BMP180;20166;51.738;7.158;2024-03-07T08:53:43;101907.00;;;5.10
33877;BMP180;20166;51.738;7.158;2024-03-07T08:56:29;101913.00;;;5.20
33877;BMP180;20166;51.738;7.158;2024-03-07T08:59:15;101895.00;;;5.20
33877;BMP180;20166;51.738;7.158;2024-03-07T09:02:03;101901.00;;;5.30
33877;BMP180;20166;51.738;7.158;2024-03-07T09:04:52;101895.00;;;5.40
33877;BMP180;20166;51.738;7.158;2024-03-07T09:07:38;101899.00;;;5.50
33877;BMP180;20166;51.738;7.158;2024-03-07T09:10:24;101892.00;;;5.50
33877;BMP180;20166;51.738;7.158;2024-03-07T09:13:14;101886.00;;;5.60
33877;BMP180;20166;51.738;7.158;2024-03-07T09:16:00;101885.00;;;5.60
33877;BMP180;20166;51.738;7.158;2024-03-07T09:18:50;101894.00;;;5.70
33877;BMP180;20166;51.738;7.158;2024-03-07T09:21:38;101888.00;;;5.60
33877;BMP180;20166;51.738;7.158;2024-03-07T09:24:25;101884.00;;;5.70
33877;BMP180;20166;51.738;7.158;2024-03-07T09:27:13;101886.00;;;5.60
33877;BMP180;20166;51.738;7.158;2024-03-07T09:30:00;101874.00;;;5.70
33877;BMP180;20166;51.738;7.158;2024-03-07T09:32:46;101889.00;;;5.80
33877;BMP180;20166;51.738;7.158;2024-03-07T09:35:34;101873.00;;;5.80
33877;BMP180;20166;51.738;7.158;2024-03-07T09:38:22;101879.00;;;5.90
33877;BMP180;20166;51.738;7.158;2024-03-07T09:41:09;101886.00;;;6.10
33877;BMP180;20166;51.738;7.158;2024-03-07T09:43:56;101885.00;;;6.00
33877;BMP180;20166;51.738;7.158;2024-03-07T09:46:45;101881.00;;;6.10
33877;BMP180;20166;51.738;7.158;2024-03-07T09:49:33;101880.00;;;6.20
33877;BMP180;20166;51.738;7.158;2024-03-07T09:52:20;101884.00;;;6.20
33877;BMP180;20166;51.738;7.158;2024-03-07T09:55:08;101874.00;;;6.30
33877;BMP180;20166;51.738;7.158;2024-03-07T09:57:55;101875.00;;;6.50
33877;BMP180;20166;51.738;7.158;2024-03-07T10:00:45;101870.00;;;6.50
33877;BMP180;20166;51.738;7.158;2024-03-07T10:03:33;101875.00;;;6.50
33877;BMP180;20166;51.738;7.158;2024-03-07T10:06:21;101875.00;;;6.50
33877;BMP180;20166;51.738;7.158;2024-03-07T10:09:10;101863.00;;;6.70
33877;BMP180;20166;51.738;7.158;2024-03-07T10:11:59;101870.00;;;6.90
33877;BMP180;20166;51.738;7.158;2024-03-07T10:14:48;101863.00;;;7.10
33877;BMP180;20166;51.738;7.158;2024-03-07T10:17:35;101865.00;;;7.10
33877;BMP180;20166;51.738;7.158;2024-03-07T10:20:23;101864.00;;;7.30
33877;BMP180;20166;51.738;7.158;2024-03-07T10:23:10;101855.00;;;7.20
33877;BMP180;20166;51.738;7.158;2024-03-07T10:25:56;101860.00;;;7.20
33877;BMP180;20166;51.738;7.158;2024-03-07T10:28:46;101856.00;;;7.30
33877;BMP180;20166;51.738;7.158;2024-03-07T10:31:34;101853.00;;;7.20
33877;BMP180;20166;51.738;7.158;2024-03-07T10:34:33;101845.00;;;7.40
33877;BMP180;20166;51.738;7.158;2024-03-07T10:37:19;101849.00;;;7.40
33877;BMP180;20166;51.738;7.158;2024-03-07T10:40:08;101845.00;;;7.40
33877;BMP180;20166;51.738;7.158;2024-03-07T10:43:01;101850.00;;;7.40
33877;BMP180;20166;51.738;7.158;2024-03-07T10:45:59;101849.00;;;7.50
33877;BMP180;20166;51.738;7.158;2024-03-07T10:48:54;101844.00;;;7.60
33877;BMP180;20166;51.738;7.158;2024-03-07T10:51:46;101842.00;;;7.70
33877;BMP180;20166;51.738;7.158;2024-03-07T10:54:36;101849.00;;;7.60
33877;BMP180;20166;51.738;7.158;2024-03-07T10:57:37;101842.00;;;7.60
33877;BMP180;20166;51.738;7.158;2024-03-07T11:00:29;101848.00;;;7.70
33877;BMP180;20166;51.738;7.158;2024-03-07T11:03:23;101841.00;;;7.70
33877;BMP180;20166;51.738;7.158;2024-03-07T11:06:10;101842.00;;;7.80
33877;BMP180;20166;51.738;7.158;2024-03-07T11:08:57;101842.00;;;7.70
33877;BMP180;20166;51.738;7.158;2024-03-07T11:11:45;101834.00;;;7.80
33877;BMP180;20166;51.738;7.158;2024-03-07T11:14:33;101841.00;;;7.90
33877;BMP180;20166;51.738;7.158;2024-03-07T11:17:21;101835.00;;;7.90
33877;BMP180;20166;51.738;7.158;2024-03-07T11:20:20;101826.00;;;7.90
33877;BMP180;20166;51.738;7.158;2024-03-07T11:23:29;101820.00;;;7.80
33877;BMP180;20166;51.738;7.158;2024-03-07T11:26:17;101819.00;;;7.80
33877;BMP180;20166;51.738;7.158;2024-03-07T11:29:39;101816.00;;;7.90
33877;BMP180;20166;51.738;7.158;2024-03-07T11:32:29;101815.00;;;8.00
33877;BMP180;20166;51.738;7.158;2024-03-07T11:35:20;101818.00;;;8.00
33877;BMP180;20166;51.738;7.158;2024-03-07T11:38:11;101815.00;;;8.00
33877;BMP180;20166;51.738;7.158;2024-03-07T11:40:59;101817.00;;;7.90
33877;BMP180;20166;51.738;7.158;2024-03-07T11:43:47;101810.00;;;8.00
33877;BMP180;20166;51.738;7.158;2024-03-07T11:46:33;101812.00;;;8.00
33877;BMP180;20166;51.738;7.158;2024-03-07T11:49:20;101808.00;;;7.90
33877;BMP180;20166;51.738;7.158;2024-03-07T11:52:08;101816.00;;;7.70
33877;BMP180;20166;51.738;7.158;2024-03-07T11:54:58;101807.00;;;7.80
33877;BMP180;20166;51.738;7.158;2024-03-07T11:57:50;101800.00;;;7.70
33877;BMP180;20166;51.738;7.158;2024-03-07T12:00:37;101792.00;;;7.70
33877;BMP180;20166;51.738;7.158;2024-03-07T12:03:28;101794.00;;;7.80
33877;BMP180;20166;51.738;7.158;2024-03-07T12:06:16;101777.00;;;7.90
33877;BMP180;20166;51.738;7.158;2024-03-07T12:09:06;101787.00;;;8.00
33877;BMP180;20166;51.738;7.158;2024-03-07T12:12:01;101782.00;;;8.00
33877;BMP180;20166;51.738;7.158;2024-03-07T12:14:47;101775.00;;;8.10
33877;BMP180;20166;51.738;7.158;2024-03-07T12:17:37;101767.00;;;8.10
33877;BMP180;20166;51.738;7.158;2024-03-07T12:20:25;101773.00;;;8.20
33877;BMP180;20166;51.738;7.158;2024-03-07T12:23:12;101772.00;;;8.20
33877;BMP180;20166;51.738;7.158;2024-03-07T12:26:03;101768.00;;;8.10
33877;BMP180;20166;51.738;7.158;2024-03-07T12:28:51;101751.00;;;8.20
33877;BMP180;20166;51.738;7.158;2024-03-07T12:31:38;101752.00;;;8.20
33877;BMP180;20166;51.738;7.158;2024-03-07T12:34:25;101751.00;;;8.30
33877;BMP180;20166;51.738;7.158;2024-03-07T12:37:15;101747.00;;;8.30
33877;BMP180;20166;51.738;7.158;2024-03-07T12:40:11;101738.00;;;8.50
33877;BMP180;20166;51.738;7.158;2024-03-07T12:43:12;101733.00;;;8.60
33877;BMP180;20166;51.738;7.158;2024-03-07T12:45:59;101723.00;;;8.80
33877;BMP180;20166;51.738;7.158;2024-03-07T12:48:45;101735.00;;;8.90
33877;BMP180;20166;51.738;7.158;2024-03-07T12:51:32;101726.00;;;9.10
33877;BMP180;20166;51.738;7.158;2024-03-07T12:54:22;101725.00;;;9.20
33877;BMP180;20166;51.738;7.158;2024-03-07T12:57:08;101719.00;;;9.10
33877;BMP180;20166;51.738;7.158;2024-03-07T12:59:56;101716.00;;;9.00
33877;BMP180;20166;51.738;7.158;2024-03-07T13:02:43;101723.00;;;8.90
33877;BMP180;20166;51.738;7.158;2024-03-07T13:05:30;101719.00;;;8.90
33877;BMP180;20166;51.738;7.158;2024-03-07T13:08:16;101709.00;;;9.00
33877;BMP180;20166;51.738;7.158;2024-03-07T13:11:03;101706.00;;;9.10
33877;BMP180;20166;51.738;7.158;2024-03-07T13:13:51;101707.00;;;9.10
33877;BMP180;20166;51.738;7.158;2024-03-07T13:16:39;101702.00;;;9.10
33877;BMP180;20166;51.738;7.158;2024-03-07T13:19:28;101697.00;;;9.30
33877;BMP180;20166;51.738;7.158;2024-03-07T13:22:15;101700.00;;;9.60
33877;BMP180;20166;51.738;7.158;2024-03-07T13:25:01;101698.00;;;9.90
33877;BMP180;20166;51.738;7.158;2024-03-07T13:28:01;101689.00;;;10.20
33877;BMP180;20166;51.738;7.158;2024-03-07T13:30:48;101691.00;;;10.40
33877;BMP180;20166;51.738;7.158;2024-03-07T13:33:36;101685.00;;;10.50
33877;BMP180;20166;51.738;7.158;2024-03-07T13:36:22;101679.00;;;10.60
33877;BMP180;20166;51.738;7.158;2024-03-07T13:39:11;101671.00;;;10.50
33877;BMP180;20166;51.738;7.158;2024-03-07T13:41:58;101671.00;;;10.50
33877;BMP180;20166;51.738;7.158;2024-03-07T13:44:45;101670.00;;;10.30
33877;BMP180;20166;51.738;7.158;2024-03-07T13:47:31;101660.00;;;10.00
33877;BMP180;20166;51.738;7.158;2024-03-07T13:50:21;101667.00;;;9.60
33877;BMP180;20166;51.738;7.158;2024-03-07T13:53:29;101666.00;;;9.40
33877;BMP180;20166;51.738;7.158;2024-03-07T13:56:49;101658.00;;;9.40
33877;BMP180;20166;51.738;7.158;2024-03-07T13:59:51;101659.00;;;9.70
33877;BMP180;20166;51.738;7.158;2024-03-07T14:03:13;101647.00;;;9.70
33877;BMP180;20166;51.738;7.158;2024-03-07T14:06:06;101640.00;;;9.80
33877;BMP180;20166;51.738;7.158;2024-03-07T14:09:22;101648.00;;;9.70
33877;BMP180;20166;51.738;7.158;2024-03-07T14:12:34;101647.00;;;9.50
33877;BMP180;20166;51.738;7.158;2024-03-07T14:15:56;101648.00;;;9.40
33877;BMP180;20166;51.738;7.158;2024-03-07T14:19:20;101636.00;;;9.50
33877;BMP180;20166;51.738;7.158;2024-03-07T14:22:30;101639.00;;;9.30
33877;BMP180;20166;51.738;7.158;2024-03-07T14:25:44;101632.00;;;9.40
33877;BMP180;20166;51.738;7.158;2024-03-07T14:28:53;101631.00;;;9.70
33877;BMP180;20166;51.738;7.158;2024-03-07T14:31:46;101627.00;;;9.90
33877;BMP180;20166;51.738;7.158;2024-03-07T14:34:45;101629.00;;;10.10
33877;BMP180;20166;51.738;7.158;2024-03-07T14:37:38;101619.00;;;10.10
33877;BMP180;20166;51.738;7.158;2024-03-07T14:40:30;101626.00;;;10.10
33877;BMP180;20166;51.738;7.158;2024-03-07T14:43:20;101624.00;;;10.00
33877;BMP180;20166;51.738;7.158;2024-03-07T14:46:07;101618.00;;;9.90
33877;BMP180;20166;51.738;7.158;2024-03-07T14:48:54;101619.00;;;10.00
33877;BMP180;20166;51.738;7.158;2024-03-07T14:51:41;101619.00;;;9.90
33877;BMP180;20166;51.738;7.158;2024-03-07T14:54:44;101609.00;;;9.80
33877;BMP180;20166;51.738;7.158;2024-03-07T14:57:31;101613.00;;;9.50
33877;BMP180;20166;51.738;7.158;2024-03-07T15:00:18;101618.00;;;9.30
33877;BMP180;20166;51.738;7.158;2024-03-07T15:03:09;101612.00;;;9.20
33877;BMP180;20166;51.738;7.158;2024-03-07T15:05:56;101614.00;;;9.10
33877;BMP180;20166;51.738;7.158;2024-03-07T15:08:43;101608.00;;;9.00
33877;BMP180;20166;51.738;7.158;2024-03-07T15:11:34;101606.00;;;8.90
33877;BMP180;20166;51.738;7.158;2024-03-07T15:14:21;101593.00;;;8.90
33877;BMP180;20166;51.738;7.158;2024-03-07T15:17:21;101601.00;;;8.90
33877;BMP180;20166;51.738;7.158;2024-03-07T15:20:09;101591.00;;;8.90
33877;BMP180;20166;51.738;7.158;2024-03-07T15:23:07;101605.00;;;9.00
33877;BMP180;20166;51.738;7.158;2024-03-07T15:25:53;101590.00;;;9.00
33877;BMP180;20166;51.738;7.158;2024-03-07T15:28:41;101590.00;;;9.10
33877;BMP180;20166;51.738;7.158;2024-03-07T15:31:28;101581.00;;;9.10
33877;BMP180;20166;51.738;7.158;2024-03-07T15:34:15;101587.00;;;9.10
33877;BMP180;20166;51.738;7.158;2024-03-07T15:37:01;101581.00;;;9.10
33877;BMP180;20166;51.738;7.158;2024-03-07T15:39:51;101580.00;;;9.10
33877;BMP180;20166;51.738;7.158;2024-03-07T15:42:37;101573.00;;;9.00
33877;BMP180;20166;51.738;7.158;2024-03-07T15:45:29;101577.00;;;9.00
33877;BMP180;20166;51.738;7.158;2024-03-07T15:48:16;101566.00;;;9.00
33877;BMP180;20166;51.738;7.158;2024-03-07T15:51:08;101555.00;;;9.10
33877;BMP180;20166;51.738;7.158;2024-03-07T15:53:55;101560.00;;;9.10
33877;BMP180;20166;51.738;7.158;2024-03-07T15:56:42;101563.00;;;9.00
33877;BMP180;20166;51.738;7.158;2024-03-07T15:59:30;101560.00;;;9.00
33877;BMP180;20166;51.738;7.158;2024-03-07T16:02:20;101562.00;;;8.90
33877;BMP180;20166;51.738;7.158;2024-03-07T16:05:07;101544.00;;;8.80
33877;BMP180;20166;51.738;7.158;2024-03-07T16:07:55;101550.00;;;8.70
33877;BMP180;20166;51.738;7.158;2024-03-07T16:10:42;101548.00;;;8.80
33877;BMP180;20166;51.738;7.158;2024-03-07T16:13:30;101544.00;;;8.80